LEPA/PMI METAR and TAF weather

Enter ICAO airport designator
Station Type Date Time Source
LEPA METAR 2021/07/27 22:30 UTC NOAA

LEPA 272230Z 03003KT 010V070 CAVOK 23/19 Q1014 NOSIG


Station Type Date Time Source
LEPA Decoded METAR 2021/07/27 22:30 UTC NOAA

Palma De Mallorca / Son San Juan, Spain (LEPA) 39-33N 002-44E 8M
Jul 27, 2021 - 06:30 PM EDT / 2021.07.27 2230 UTC
Wind: from the NNE (030 degrees) at 3 MPH (3 KT) (direction variable):0
Visibility: greater than 7 mile(s):0
Temperature: 73 F (23 C)
Dew Point: 66 F (19 C)
Relative Humidity: 78%
Pressure (altimeter): 29.94 in. Hg (1014 hPa)
ob: LEPA 272230Z 03003KT 010V070 CAVOK 23/19 Q1014 NOSIG
cycle: 22

Station Type Date Time Source
LEPA TAF 2021/07/27 18:27 UTC NOAA

TAF TAF LEPA 271700Z 2718/2818 22004KT 9999 FEW040 TX33/2812Z TN19/2806Z
BECMG 2718/2720 VRB04KT
BECMG 2807/2809 06009KT PROB40
TEMPO 2812/2815 22009KT

Example: see airport list